Tropical Cyclones
[Index]
Main Index Home Page Stock Weather Photos Extreme Storms Discussion Storm News and Storm Chasing Reports Tropical Cyclones / Hurricanes / Typhoons Weather Data and Links Wild Fires / Bushfires Weather Observation Techniques Weather Picture Catalogue Tornado Pictures and Reports Stock Video Footage and DVDs for sale
Season 2016-2017 Tropical Cyclone FRANCES Track Map
Season 2016-2017 Summaries: [BoM-AU]
<<- Previous TC | BoM 2016-2017 Season | Next TC ->>

click for intensity scale information  Lat/long Grid: Show Hide

 Date Labels: Show Hide

Bureau of Meteorology Tropical Cyclone Data

Name: FRANCES

24 Apr 2017 00:00 UTC to 30 Apr 2017 00:00 UTC

    date/time    lat    long    hPa   cat  kts
2017-04-24 00    7.8   136.5   1008         15          
2017-04-24 06    8.1   135.3   1006         20          
2017-04-24 12    8.1   134.5   1008         20          
2017-04-24 18    8.0   133.9   1008         20          
2017-04-25 00    7.5   133.2   1009         20          
2017-04-25 06    7.5   132.9   1006         20          
2017-04-25 12    7.3   132.6   1008         20          
2017-04-25 18    7.4   132.1   1006         25          
2017-04-26 00    7.7   131.5   1006         25          
2017-04-26 06    7.7   131.7   1003         25          
2017-04-26 12    8.5   131.4   1005         25          
2017-04-26 18    8.8   130.7   1004         25          
2017-04-27 00   10.0   130.1   1002         30          
2017-04-27 06   10.5   129.2    997         35          
2017-04-27 12   10.7   128.3    994    1    45          
2017-04-27 18   11.0   127.5    993    1    50          
2017-04-28 00   11.3   126.4    990    1    55          
2017-04-28 06   11.8   125.6    983    2    65          
2017-04-28 12   12.2   125.1    981    2    65          
2017-04-28 18   12.4   124.4    980    2    65          
2017-04-29 00   12.7   124.0    982    2    65          
2017-04-29 06   13.0   123.8    989    1    55          
2017-04-29 12   13.0   123.2    992    1    50          
2017-04-29 18   13.1   122.6   1000         35          
2017-04-30 00   13.4   122.2   1002         35          
Winds are 10-min average.

Tropical cyclone tracks developed by Michael Bath using data from the Bureau of Meteorology and Google Maps.


[Australian Severe Weather index] [Copyright Notice] [Email Contacts] [Search This Site] [Privacy Policy]
Document: tropical_cyclone_frances.htm Updated: 29 June 2017